UPS8910 KRFD-KCAE
Flight info
| Callsign | UPS8910 |
|---|---|
| Flight time | N/A |
| Altitude | 39000 |
| Route | BIXBY1 AHMED BVT FLM SPA |
| Aircraft | MD11/H-SDE1E2E3FGHIJ2J3J4J5M1RWXY/LB1D1 |
Departure
| Time | 2026-05-09 00:50 |
|---|---|
| Airport | Chicago Rockford International Airport (KRFD) |
Arrival
| Time | N/A |
|---|---|
| Airport | Columbia Metropolitan Airport (KCAE) |
| Time | Latitude | Longitude | Altitude | Speed | Heading |
|---|---|---|---|---|---|
| 2026-05-09 00:09 | 42.19977 | -89.10240 | 740 ft | 0 kts | 245° |
| 2026-05-09 00:38 | 42.19971 | -89.10257 | 740 ft | 3 kts | 243° |
| 2026-05-09 00:38 | 42.19958 | -89.10282 | 739 ft | 3 kts | 229° |
| 2026-05-09 00:38 | 42.19939 | -89.10295 | 739 ft | 3 kts | 199° |
| 2026-05-09 00:39 | 42.19919 | -89.10292 | 740 ft | 3 kts | 167° |
| 2026-05-09 00:39 | 42.19907 | -89.10284 | 740 ft | 1 kts | 155° |
| 2026-05-09 00:43 | 42.19889 | -89.10273 | 738 ft | 6 kts | 154° |
| 2026-05-09 00:43 | 42.19845 | -89.10244 | 740 ft | 7 kts | 153° |
| 2026-05-09 00:43 | 42.19813 | -89.10222 | 740 ft | 3 kts | 153° |
| 2026-05-09 00:43 | 42.19798 | -89.10212 | 740 ft | 4 kts | 150° |
| 2026-05-09 00:44 | 42.19780 | -89.10182 | 739 ft | 5 kts | 115° |
| 2026-05-09 00:44 | 42.19783 | -89.10123 | 740 ft | 9 kts | 76° |
| 2026-05-09 00:44 | 42.19812 | -89.10024 | 741 ft | 13 kts | 65° |
| 2026-05-09 00:44 | 42.19849 | -89.09917 | 740 ft | 12 kts | 65° |
| 2026-05-09 00:45 | 42.19880 | -89.09824 | 740 ft | 10 kts | 65° |
| 2026-05-09 00:45 | 42.19907 | -89.09745 | 742 ft | 9 kts | 65° |
| 2026-05-09 00:45 | 42.19939 | -89.09652 | 742 ft | 13 kts | 65° |
| 2026-05-09 00:45 | 42.19974 | -89.09546 | 744 ft | 11 kts | 65° |
| 2026-05-09 00:46 | 42.20004 | -89.09464 | 744 ft | 8 kts | 64° |
| 2026-05-09 00:46 | 42.20035 | -89.09375 | 743 ft | 14 kts | 64° |
| 2026-05-09 00:46 | 42.20073 | -89.09270 | 745 ft | 11 kts | 64° |
| 2026-05-09 00:46 | 42.20101 | -89.09187 | 747 ft | 8 kts | 65° |
| 2026-05-09 00:47 | 42.20125 | -89.09115 | 747 ft | 10 kts | 66° |
| 2026-05-09 00:47 | 42.20158 | -89.09016 | 747 ft | 11 kts | 66° |
| 2026-05-09 00:47 | 42.20187 | -89.08929 | 749 ft | 9 kts | 66° |
| 2026-05-09 00:47 | 42.20211 | -89.08859 | 747 ft | 8 kts | 65° |
| 2026-05-09 00:48 | 42.20234 | -89.08792 | 746 ft | 7 kts | 65° |
| 2026-05-09 00:48 | 42.20246 | -89.08735 | 747 ft | 6 kts | 91° |
| 2026-05-09 00:48 | 42.20220 | -89.08692 | 749 ft | 7 kts | 148° |
| 2026-05-09 00:48 | 42.20172 | -89.08673 | 749 ft | 4 kts | 181° |
| 2026-05-09 00:49 | 42.20146 | -89.08699 | 745 ft | 7 kts | 232° |
| 2026-05-09 00:49 | 42.20082 | -89.08878 | 746 ft | 54 kts | 245° |
| 2026-05-09 00:49 | 42.19803 | -89.09693 | 743 ft | 136 kts | 245° |
| 2026-05-09 00:49 | 42.19323 | -89.11051 | 1071 ft | 170 kts | 244° |
| 2026-05-09 00:50 | 42.18818 | -89.12513 | 1868 ft | 175 kts | 246° |
| 2026-05-09 00:50 | 42.18318 | -89.14027 | 2204 ft | 177 kts | 246° |
| 2026-05-09 00:50 | 42.17827 | -89.15535 | 2577 ft | 175 kts | 246° |
| 2026-05-09 00:50 | 42.17338 | -89.17056 | 2932 ft | 177 kts | 246° |
| 2026-05-09 00:51 | 42.16864 | -89.18546 | 3876 ft | 167 kts | 246° |
| 2026-05-09 00:51 | 42.16362 | -89.20091 | 4523 ft | 197 kts | 242° |
| 2026-05-09 00:51 | 42.15345 | -89.21572 | 4677 ft | 236 kts | 214° |
| 2026-05-09 00:51 | 42.13814 | -89.22704 | 5036 ft | 260 kts | 208° |
| 2026-05-09 00:52 | 42.12209 | -89.23840 | 6163 ft | 262 kts | 211° |
| 2026-05-09 00:52 | 42.10624 | -89.25068 | 7287 ft | 264 kts | 212° |
| 2026-05-09 00:52 | 42.09538 | -89.25959 | 7941 ft | 268 kts | 214° |
| 2026-05-09 00:52 | 42.07981 | -89.27309 | 8935 ft | 271 kts | 216° |
| 2026-05-09 00:53 | 42.06402 | -89.28736 | 9884 ft | 275 kts | 217° |
| 2026-05-09 00:53 | 42.04767 | -89.30262 | 10317 ft | 301 kts | 218° |
| 2026-05-09 00:53 | 42.02981 | -89.31972 | 10466 ft | 333 kts | 219° |
| 2026-05-09 00:53 | 42.01029 | -89.33863 | 10961 ft | 351 kts | 219° |
| 2026-05-09 00:54 | 41.99033 | -89.35809 | 11763 ft | 356 kts | 219° |
| 2026-05-09 00:54 | 41.96987 | -89.37791 | 12643 ft | 367 kts | 219° |
| 2026-05-09 00:54 | 41.94908 | -89.39795 | 13612 ft | 367 kts | 220° |
| 2026-05-09 00:54 | 41.92806 | -89.41705 | 14389 ft | 372 kts | 215° |
| 2026-05-09 00:55 | 41.90489 | -89.43320 | 15195 ft | 377 kts | 210° |
| 2026-05-09 00:55 | 41.88066 | -89.44787 | 15961 ft | 382 kts | 208° |
| 2026-05-09 00:55 | 41.85638 | -89.46194 | 16692 ft | 384 kts | 208° |
| 2026-05-09 00:55 | 41.83161 | -89.47613 | 17408 ft | 387 kts | 208° |
| 2026-05-09 00:56 | 41.80654 | -89.49029 | 18085 ft | 391 kts | 206° |
| 2026-05-09 00:56 | 41.77978 | -89.49949 | 18723 ft | 403 kts | 193° |
| 2026-05-09 00:56 | 41.75193 | -89.50203 | 19357 ft | 410 kts | 187° |
| 2026-05-09 00:56 | 41.72307 | -89.50100 | 19982 ft | 416 kts | 181° |
| 2026-05-09 00:57 | 41.69405 | -89.49437 | 20556 ft | 427 kts | 170° |
| 2026-05-09 00:57 | 41.66649 | -89.47961 | 21129 ft | 439 kts | 156° |
| 2026-05-09 00:57 | 41.64145 | -89.45521 | 21673 ft | 453 kts | 140° |
| 2026-05-09 00:57 | 41.62156 | -89.42184 | 22204 ft | 466 kts | 124° |
| 2026-05-09 00:58 | 41.60802 | -89.38207 | 22700 ft | 475 kts | 112° |
| 2026-05-09 00:58 | 41.59848 | -89.33935 | 23199 ft | 482 kts | 107° |
| 2026-05-09 00:58 | 41.59050 | -89.29620 | 23698 ft | 486 kts | 106° |